createdAt,value
2018-07-25T00:01:44.789Z,12.70
2018-07-25T00:04:14.292Z,12.03
2018-07-25T00:06:45.728Z,12.13
2018-07-25T00:09:15.328Z,12.20
2018-07-25T00:11:47.496Z,13.43
2018-07-25T00:14:21.288Z,13.28
2018-07-25T00:16:54.585Z,13.05
2018-07-25T00:19:24.425Z,12.78
2018-07-25T00:21:53.801Z,13.22
2018-07-25T00:24:25.271Z,13.53
2018-07-25T00:26:55.922Z,12.53
2018-07-25T00:29:24.996Z,13.40
2018-07-25T00:31:55.853Z,13.32
2018-07-25T00:34:30.151Z,13.58
2018-07-25T00:37:01.571Z,14.03
2018-07-25T00:39:33.227Z,13.85
2018-07-25T00:42:03.772Z,13.10
2018-07-25T00:44:33.087Z,12.98
2018-07-25T00:47:02.941Z,13.70
2018-07-25T00:49:34.595Z,13.72
2018-07-25T00:52:09.280Z,13.85
2018-07-25T00:54:40.676Z,13.98
2018-07-25T00:57:13.092Z,13.70
2018-07-25T00:59:46.037Z,14.05
2018-07-25T01:02:20.505Z,13.55
2018-07-25T01:04:55.822Z,14.23
2018-07-25T01:07:26.763Z,14.03
2018-07-25T01:09:57.512Z,14.25
2018-07-25T01:12:31.138Z,13.43
2018-07-25T01:15:02.258Z,13.80
2018-07-25T01:17:33.389Z,14.63
2018-07-25T01:20:07.210Z,13.85
2018-07-25T01:22:39.265Z,15.13
2018-07-25T01:25:11.343Z,14.15
2018-07-25T01:27:42.589Z,14.68
2018-07-25T01:30:13.059Z,14.30
2018-07-25T01:32:43.329Z,15.03
2018-07-25T01:35:13.465Z,14.13
2018-07-25T01:37:46.036Z,15.23
2018-07-25T01:40:20.145Z,14.70
2018-07-25T01:42:51.490Z,14.63
2018-07-25T01:45:21.232Z,14.93
2018-07-25T01:47:53.320Z,14.55
2018-07-25T01:50:23.196Z,14.60
2018-07-25T01:52:53.711Z,15.38
2018-07-25T01:55:24.884Z,14.98
2018-07-25T01:57:56.514Z,15.38
2018-07-25T02:00:28.581Z,14.30
2018-07-25T02:03:04.627Z,15.65
2018-07-25T02:05:36.010Z,15.78
2018-07-25T02:08:08.310Z,16.23
2018-07-25T02:10:44.415Z,15.58
2018-07-25T02:13:17.206Z,15.68
2018-07-25T02:15:57.275Z,15.43
2018-07-25T02:18:27.668Z,16.12
2018-07-25T02:20:57.485Z,15.83
2018-07-25T02:23:27.732Z,15.88
2018-07-25T02:25:58.674Z,16.32
2018-07-25T02:28:29.819Z,16.02
2018-07-25T02:31:00.734Z,15.23
2018-07-25T02:33:36.580Z,15.35
2018-07-25T02:36:08.060Z,16.25
2018-07-25T02:38:40.994Z,15.80
2018-07-25T02:41:12.897Z,16.65
2018-07-25T02:43:46.004Z,15.70
2018-07-25T02:46:17.933Z,16.02
2018-07-25T02:48:48.065Z,16.45
2018-07-25T02:51:18.936Z,17.12
2018-07-25T02:53:51.216Z,16.67
2018-07-25T02:56:22.921Z,17.15
2018-07-25T02:58:54.684Z,15.98
2018-07-25T03:01:29.848Z,17.60
2018-07-25T03:04:02.513Z,16.30
2018-07-25T03:06:38.063Z,15.88
2018-07-25T03:09:11.227Z,17.00
2018-07-25T03:11:40.899Z,16.40
2018-07-25T03:14:12.393Z,16.85
2018-07-25T03:16:49.138Z,17.00
2018-07-25T03:19:21.016Z,16.45
2018-07-25T03:21:52.588Z,15.68
2018-07-25T03:24:26.030Z,16.93
2018-07-25T03:27:04.505Z,17.27
2018-07-25T03:29:37.197Z,16.97
2018-07-25T03:32:07.977Z,16.05
2018-07-25T03:34:39.544Z,16.23
2018-07-25T03:37:10.619Z,16.27
2018-07-25T03:39:40.118Z,17.20
2018-07-25T03:42:16.868Z,16.00
2018-07-25T03:44:50.702Z,16.35
2018-07-25T03:47:20.384Z,16.25
2018-07-25T03:49:50.137Z,15.83
2018-07-25T03:52:26.417Z,16.93
2018-07-25T03:55:00.818Z,16.93
2018-07-25T03:57:34.615Z,16.85
2018-07-25T04:00:04.989Z,17.85
2018-07-25T04:02:36.747Z,17.62
2018-07-25T04:05:06.404Z,17.42
2018-07-25T04:07:36.808Z,18.37
2018-07-25T04:10:08.851Z,17.42
2018-07-25T04:12:38.909Z,17.05
2018-07-25T04:15:12.137Z,17.77
2018-07-25T04:17:44.992Z,16.73
2018-07-25T04:20:20.405Z,16.87
2018-07-25T04:22:54.164Z,16.90
2018-07-25T04:25:24.446Z,17.85
2018-07-25T04:27:55.972Z,18.02
2018-07-25T04:30:25.896Z,17.02
2018-07-25T04:32:57.209Z,17.05
2018-07-25T04:35:26.969Z,17.15
2018-07-25T04:37:56.363Z,17.23
2018-07-25T04:40:25.952Z,16.52
2018-07-25T04:42:55.608Z,16.37
2018-07-25T04:45:26.476Z,15.88
2018-07-25T04:47:56.577Z,15.78
2018-07-25T04:50:26.229Z,15.60
2018-07-25T04:52:56.339Z,15.65
2018-07-25T04:55:35.434Z,16.42
2018-07-25T04:58:06.163Z,14.43
2018-07-25T05:00:35.647Z,14.87
2018-07-25T05:03:06.251Z,15.45
2018-07-25T05:05:42.680Z,16.07
2018-07-25T05:10:48.425Z,16.35
2018-07-25T05:13:19.530Z,16.80
2018-07-25T05:15:50.482Z,16.07
2018-07-25T05:18:26.231Z,16.02
2018-07-25T05:21:01.664Z,15.35
2018-07-25T05:23:32.387Z,16.32
2018-07-25T05:26:03.136Z,15.93
2018-07-25T05:28:35.364Z,15.88
2018-07-25T05:33:49.085Z,17.60
2018-07-25T05:39:15.202Z,16.52
2018-07-25T05:41:56.388Z,15.75
2018-07-25T05:44:36.329Z,14.80
2018-07-25T05:47:15.152Z,14.43
2018-07-25T05:49:46.827Z,15.28
2018-07-25T05:52:25.552Z,15.90
2018-07-25T05:55:08.992Z,14.58
2018-07-25T05:57:46.557Z,15.15
2018-07-25T06:03:10.185Z,14.93
2018-07-25T06:05:43.133Z,14.73
2018-07-25T06:08:21.159Z,14.98
2018-07-25T06:10:55.685Z,14.73
2018-07-25T06:13:30.512Z,13.65
2018-07-25T06:16:05.035Z,14.07
2018-07-25T06:18:35.972Z,14.93
2018-07-25T06:21:07.028Z,14.07
2018-07-25T06:23:38.981Z,14.35
2018-07-25T06:26:09.759Z,13.83
2018-07-25T06:28:42.912Z,14.15
2018-07-25T06:31:13.657Z,13.70
2018-07-25T06:33:42.732Z,12.90
2018-07-25T06:36:12.191Z,13.75
2018-07-25T06:38:41.317Z,14.03
2018-07-25T06:41:10.721Z,14.07
2018-07-25T06:43:41.094Z,14.53
2018-07-25T06:46:10.031Z,13.30
2018-07-25T06:48:39.252Z,12.60
2018-07-25T06:51:10.055Z,12.23
2018-07-25T06:53:39.951Z,12.07
2018-07-25T06:56:09.196Z,12.25
2018-07-25T06:58:41.048Z,13.83
2018-07-25T07:01:10.264Z,11.93
2018-07-25T07:03:39.546Z,12.10
2018-07-25T07:06:09.683Z,11.50
2018-07-25T07:08:39.259Z,11.28
2018-07-25T07:11:08.552Z,12.05
2018-07-25T07:13:39.321Z,11.38
2018-07-25T07:16:08.842Z,13.75
2018-07-25T07:18:40.829Z,11.28
2018-07-25T07:21:12.291Z,10.75
2018-07-25T07:23:42.550Z,11.05
2018-07-25T07:26:13.079Z,11.15
2018-07-25T07:28:43.155Z,10.03
2018-07-25T07:31:13.656Z,9.60
2018-07-25T07:33:43.707Z,9.20
2018-07-25T07:36:14.812Z,9.63
2018-07-25T07:38:43.901Z,9.48
2018-07-25T07:41:16.561Z,9.85
2018-07-25T07:43:49.717Z,9.48
2018-07-25T07:46:19.424Z,9.13
2018-07-25T07:48:50.213Z,8.63
2018-07-25T07:51:22.164Z,8.95
2018-07-25T07:53:55.217Z,8.25
2018-07-25T07:56:26.067Z,7.60
2018-07-25T07:58:55.196Z,7.20
2018-07-25T08:01:26.004Z,7.30
2018-07-25T08:03:58.354Z,6.95
2018-07-25T08:06:28.612Z,7.10
2018-07-25T08:08:58.104Z,6.55
2018-07-25T08:11:29.219Z,10.35
2018-07-25T08:14:03.860Z,5.83
2018-07-25T08:16:35.074Z,6.40
2018-07-25T08:19:11.318Z,7.78
2018-07-25T08:21:42.864Z,6.12
2018-07-25T08:24:13.297Z,5.58
2018-07-25T08:26:43.913Z,5.65
2018-07-25T08:29:18.037Z,6.20
2018-07-25T08:31:50.555Z,6.40
2018-07-25T08:34:21.590Z,5.97
2018-07-25T08:36:51.736Z,6.60
2018-07-25T08:39:21.241Z,6.30
2018-07-25T08:41:51.584Z,6.60
2018-07-25T08:44:21.393Z,6.53
2018-07-25T08:46:53.265Z,6.80
2018-07-25T08:49:22.836Z,6.35
2018-07-25T08:51:52.561Z,5.55
2018-07-25T08:54:27.510Z,17.65
2018-07-25T08:56:59.743Z,5.58
2018-07-25T08:59:31.653Z,5.20
2018-07-25T09:02:05.414Z,5.65
2018-07-25T09:04:35.939Z,5.90
2018-07-25T09:07:09.573Z,5.45
2018-07-25T09:09:42.878Z,5.20
2018-07-25T09:12:14.233Z,5.28
2018-07-25T09:14:46.292Z,4.83
2018-07-25T09:17:16.592Z,4.90
2018-07-25T09:19:47.170Z,4.37
2018-07-25T09:22:21.573Z,4.75
2018-07-25T09:24:52.573Z,4.85
2018-07-25T09:27:23.421Z,5.08
2018-07-25T09:29:54.664Z,5.47
2018-07-25T09:32:26.127Z,5.33
2018-07-25T09:34:55.637Z,5.60
2018-07-25T09:37:26.763Z,5.65
2018-07-25T09:39:57.500Z,4.83
2018-07-25T09:42:29.498Z,5.55
2018-07-25T09:44:59.890Z,5.62
2018-07-25T09:47:29.866Z,4.53
2018-07-25T09:50:02.078Z,4.80
2018-07-25T09:59:21.736Z,5.05
2018-07-25T10:01:56.581Z,5.50
2018-07-25T10:04:30.233Z,5.50
2018-07-25T10:07:00.189Z,4.70
2018-07-25T10:09:30.065Z,6.10
2018-07-25T10:12:02.977Z,5.20
2018-07-25T10:14:33.365Z,4.90
2018-07-25T10:17:03.697Z,5.95
2018-07-25T10:19:34.365Z,5.53
2018-07-25T10:22:10.784Z,5.75
2018-07-25T10:24:43.305Z,5.47
2018-07-25T10:27:13.305Z,5.33
2018-07-25T10:29:44.157Z,5.62
2018-07-25T10:32:16.311Z,6.35
2018-07-25T10:34:48.718Z,5.05
2018-07-25T10:37:18.160Z,5.03
2018-07-25T10:39:51.705Z,6.10
2018-07-25T10:42:23.278Z,6.22
2018-07-25T10:44:53.341Z,5.75
2018-07-25T10:47:26.017Z,5.60
2018-07-25T10:49:59.414Z,5.78
2018-07-25T10:52:28.931Z,5.80
2018-07-25T10:55:00.758Z,6.45
2018-07-25T10:57:34.236Z,6.15
2018-07-25T11:00:07.064Z,6.35
2018-07-25T11:02:38.797Z,6.37
2018-07-25T11:05:09.211Z,6.40
2018-07-25T11:07:38.933Z,6.60
2018-07-25T11:10:09.996Z,6.95
2018-07-25T11:12:40.728Z,6.37
2018-07-25T11:15:14.738Z,6.15
2018-07-25T11:17:45.883Z,6.67
2018-07-25T11:20:18.032Z,6.35
2018-07-25T11:22:48.209Z,6.15
2018-07-25T11:25:21.679Z,7.00
2018-07-25T11:27:54.760Z,6.67
2018-07-25T11:30:24.985Z,6.60
2018-07-25T11:32:54.620Z,7.22
2018-07-25T11:35:24.581Z,6.47
2018-07-25T11:37:56.678Z,8.40
2018-07-25T11:40:31.814Z,7.47
2018-07-25T11:43:02.556Z,6.75
2018-07-25T11:45:33.232Z,6.47
2018-07-25T11:48:06.036Z,6.35
2018-07-25T11:50:39.621Z,6.53
2018-07-25T11:53:10.917Z,6.25
2018-07-25T11:55:43.194Z,6.72
2018-07-25T11:58:26.167Z,5.87
2018-07-25T12:00:59.332Z,6.75
2018-07-25T12:03:35.304Z,6.25
2018-07-25T12:06:12.196Z,7.00
2018-07-25T12:08:42.456Z,6.03
2018-07-25T12:11:15.896Z,6.58
2018-07-25T12:13:48.456Z,6.42
2018-07-25T12:16:19.962Z,6.80
2018-07-25T12:18:50.205Z,6.10
2018-07-25T12:21:20.481Z,6.28
2018-07-25T12:23:52.536Z,5.17
2018-07-25T12:26:23.741Z,8.40
2018-07-25T12:29:01.685Z,6.75
2018-07-25T12:31:32.644Z,6.35
2018-07-25T12:34:06.224Z,5.70
2018-07-25T12:36:44.620Z,6.28
2018-07-25T12:39:13.996Z,5.75
2018-07-25T12:41:44.461Z,5.60
2018-07-25T12:44:16.905Z,6.08
2018-07-25T12:46:49.625Z,5.60
2018-07-25T12:49:22.646Z,5.95
2018-07-25T12:51:55.041Z,5.92
2018-07-25T12:54:26.847Z,6.40
2018-07-25T12:56:56.893Z,9.28
2018-07-25T12:59:29.732Z,6.47
2018-07-25T13:02:03.633Z,6.08
2018-07-25T13:04:33.320Z,6.10
2018-07-25T13:07:03.070Z,5.50
2018-07-25T13:09:35.691Z,5.67
2018-07-25T13:12:16.689Z,9.68
2018-07-25T13:14:50.335Z,5.15
2018-07-25T13:17:21.942Z,5.20
2018-07-25T13:19:51.819Z,5.10
2018-07-25T13:22:23.518Z,7.22
2018-07-25T13:24:55.410Z,5.97
2018-07-25T13:30:01.150Z,8.05
2018-07-25T13:32:32.042Z,4.83
2018-07-25T13:35:04.283Z,8.85
2018-07-25T13:37:35.503Z,9.43
2018-07-25T13:40:06.521Z,6.97
2018-07-25T13:42:36.750Z,5.90
2018-07-25T13:45:10.237Z,5.90
2018-07-25T13:47:41.008Z,5.42
2018-07-25T13:50:11.408Z,5.53
2018-07-25T13:52:41.212Z,8.63
2018-07-25T13:55:11.597Z,6.00
2018-07-25T13:57:42.088Z,6.00
2018-07-25T14:00:12.809Z,6.28
2018-07-25T14:02:43.976Z,5.62
2018-07-25T14:05:16.083Z,5.70
2018-07-25T14:07:47.278Z,5.70
2018-07-25T14:10:18.144Z,5.47
2018-07-25T14:12:53.024Z,5.75
2018-07-25T14:15:24.359Z,5.40
2018-07-25T14:17:57.975Z,5.62
2018-07-25T14:20:29.520Z,5.53
2018-07-25T14:23:13.121Z,6.12
2018-07-25T14:25:42.933Z,6.12
2018-07-25T14:28:14.497Z,6.00
2018-07-25T14:30:49.284Z,6.83
2018-07-25T14:33:22.308Z,6.08
2018-07-25T14:35:53.485Z,6.33
2018-07-25T14:38:30.628Z,6.35
2018-07-25T14:41:09.150Z,7.03
2018-07-25T14:43:46.644Z,6.40
2018-07-25T14:46:24.176Z,6.55
2018-07-25T14:48:59.713Z,6.28
2018-07-25T14:51:38.096Z,8.38
2018-07-25T14:54:15.281Z,6.28
2018-07-25T14:56:54.759Z,6.40
2018-07-25T14:59:37.177Z,6.05
2018-07-25T15:02:16.244Z,6.20
2018-07-25T15:04:55.612Z,6.45
2018-07-25T15:07:29.955Z,6.33
2018-07-25T15:10:04.141Z,6.55
2018-07-25T15:12:43.507Z,6.40
2018-07-25T15:15:15.928Z,6.20
2018-07-25T15:17:46.912Z,5.97
2018-07-25T15:20:17.081Z,6.55
2018-07-25T15:22:49.623Z,6.78
2018-07-25T15:25:20.256Z,6.45
2018-07-25T15:27:54.037Z,6.25
2018-07-25T15:30:25.504Z,6.20
2018-07-25T15:32:54.648Z,5.97
2018-07-25T15:35:25.372Z,5.75
2018-07-25T15:37:54.545Z,5.25
2018-07-25T15:40:23.797Z,6.42
2018-07-25T15:42:53.128Z,5.67
2018-07-25T15:45:22.392Z,6.90
2018-07-25T15:47:58.185Z,5.50
2018-07-25T15:50:28.256Z,5.78
2018-07-25T15:53:02.324Z,5.67
2018-07-25T15:55:36.630Z,5.35
2018-07-25T15:58:10.025Z,5.78
2018-07-25T16:00:39.240Z,5.83
2018-07-25T16:03:10.108Z,5.33
2018-07-25T16:05:39.820Z,5.87
2018-07-25T16:08:09.365Z,5.85
2018-07-25T16:10:39.072Z,6.60
2018-07-25T16:13:09.721Z,5.95
2018-07-25T16:15:39.415Z,6.67
2018-07-25T16:18:08.600Z,5.40
2018-07-25T16:20:38.693Z,6.42
2018-07-25T16:23:08.216Z,6.78
2018-07-25T16:25:40.017Z,5.08
2018-07-25T16:28:11.074Z,5.90
2018-07-25T16:30:40.525Z,7.17
2018-07-25T16:33:10.676Z,5.83
2018-07-25T16:35:40.843Z,5.55
2018-07-25T16:38:12.234Z,5.70
2018-07-25T16:40:43.464Z,6.08
2018-07-25T16:43:14.940Z,6.20
2018-07-25T16:45:45.172Z,6.10
2018-07-25T16:48:17.092Z,5.85
2018-07-25T16:50:47.604Z,5.92
2018-07-25T16:53:18.438Z,6.30
2018-07-25T16:55:51.362Z,6.20
2018-07-25T16:58:23.294Z,5.35
2018-07-25T17:00:54.377Z,5.28
2018-07-25T17:03:29.693Z,5.47
2018-07-25T17:06:02.736Z,5.30
2018-07-25T17:08:32.697Z,7.67
2018-07-25T17:11:04.110Z,5.65
2018-07-25T17:13:36.775Z,6.15
2018-07-25T17:16:10.453Z,5.10
2018-07-25T17:18:41.038Z,5.30
2018-07-25T17:21:12.192Z,5.67
2018-07-25T17:23:47.861Z,7.87
2018-07-25T17:26:21.992Z,5.75
2018-07-25T17:28:52.788Z,5.75
2018-07-25T17:31:28.709Z,5.72
2018-07-25T17:34:02.357Z,5.15
2018-07-25T17:36:34.621Z,5.55
2018-07-25T17:39:11.409Z,5.90
2018-07-25T17:41:44.413Z,7.92
2018-07-25T17:44:16.181Z,5.67
2018-07-25T17:46:46.700Z,5.28
2018-07-25T17:49:16.741Z,7.78
2018-07-25T17:51:48.778Z,5.30
2018-07-25T17:54:19.383Z,6.35
2018-07-25T17:56:50.938Z,5.65
2018-07-25T17:59:22.594Z,5.75
2018-07-25T18:01:55.634Z,5.75
2018-07-25T18:04:27.956Z,6.97
2018-07-25T18:07:02.489Z,5.67
2018-07-25T18:09:33.028Z,6.08
2018-07-25T18:12:04.336Z,5.75
2018-07-25T18:14:43.453Z,5.80
2018-07-25T18:17:16.101Z,5.95
2018-07-25T18:19:47.719Z,5.62
2018-07-25T18:22:17.883Z,5.92
2018-07-25T18:24:49.493Z,6.08
2018-07-25T18:27:23.345Z,5.70
2018-07-25T18:29:55.553Z,6.00
2018-07-25T18:32:25.601Z,5.67
2018-07-25T18:34:57.276Z,6.40
2018-07-25T18:37:26.853Z,6.83
2018-07-25T18:39:56.868Z,7.28
2018-07-25T18:42:31.857Z,6.65
2018-07-25T18:45:01.349Z,6.28
2018-07-25T18:47:31.833Z,6.85
2018-07-25T18:50:03.517Z,7.28
2018-07-25T18:52:38.012Z,6.65
2018-07-25T18:55:14.101Z,6.85
2018-07-25T18:57:45.261Z,7.10
2018-07-25T19:00:17.028Z,6.97
2018-07-25T19:02:48.857Z,6.42
2018-07-25T19:05:24.409Z,7.17
2018-07-25T19:07:56.724Z,7.60
2018-07-25T19:10:27.208Z,7.15
2018-07-25T19:12:58.998Z,6.87
2018-07-25T19:15:34.209Z,6.97
2018-07-25T19:18:04.020Z,6.78
2018-07-25T19:20:35.769Z,7.40
2018-07-25T19:23:06.513Z,8.03
2018-07-25T19:25:37.384Z,7.72
2018-07-25T19:28:10.329Z,10.10
2018-07-25T19:30:40.348Z,8.00
2018-07-25T19:33:12.046Z,7.83
2018-07-25T19:35:45.008Z,8.15
2018-07-25T19:38:16.672Z,7.60
2018-07-25T19:40:47.904Z,7.60
2018-07-25T19:43:23.144Z,7.42
2018-07-25T19:45:55.800Z,7.67
2018-07-25T19:48:28.897Z,7.53
2018-07-25T19:50:59.548Z,10.13
2018-07-25T19:53:31.937Z,7.55
2018-07-25T19:56:02.027Z,7.87
2018-07-25T19:58:41.268Z,7.87
2018-07-25T20:01:14.029Z,10.60
2018-07-25T20:03:46.020Z,8.20
2018-07-25T20:06:16.688Z,8.35
2018-07-25T20:08:54.037Z,8.88
2018-07-25T20:11:23.192Z,7.87
2018-07-25T20:13:59.694Z,7.95
2018-07-25T20:16:29.849Z,7.85
2018-07-25T20:19:00.037Z,7.85
2018-07-25T20:21:29.608Z,8.35
2018-07-25T20:24:00.466Z,8.23
2018-07-25T20:26:34.170Z,8.48
2018-07-25T20:30:33.886Z,8.20
2018-07-25T20:33:07.285Z,9.78
2018-07-25T20:35:40.406Z,8.50
2018-07-25T20:38:12.365Z,8.00
2018-07-25T20:40:42.159Z,7.97
2018-07-25T20:44:41.335Z,8.68
2018-07-25T20:47:11.455Z,8.45
2018-07-25T20:49:41.601Z,9.10
2018-07-25T20:52:12.640Z,8.30
2018-07-25T20:54:44.988Z,9.15
2018-07-25T20:57:15.038Z,9.33
2018-07-25T20:59:45.363Z,8.75
2018-07-25T21:02:17.325Z,8.65
2018-07-25T21:04:48.065Z,8.88
2018-07-25T21:07:19.507Z,8.20
2018-07-25T21:09:51.847Z,8.13
2018-07-25T21:12:24.428Z,9.38
2018-07-25T21:14:54.659Z,8.80
2018-07-25T21:17:25.149Z,8.63
2018-07-25T21:19:57.167Z,8.18
2018-07-25T21:22:35.404Z,9.48
2018-07-25T21:25:05.236Z,8.60
2018-07-25T21:27:35.800Z,8.30
2018-07-25T21:30:07.807Z,8.30
2018-07-25T21:32:41.563Z,7.95
2018-07-25T21:35:11.410Z,8.68
2018-07-25T21:37:53.628Z,9.18
2018-07-25T21:40:24.868Z,8.23
2018-07-25T21:42:56.509Z,8.93
2018-07-25T21:45:26.369Z,11.20
2018-07-25T21:47:58.148Z,8.85
2018-07-25T21:50:28.780Z,9.05
2018-07-25T21:52:58.328Z,9.38
2018-07-25T21:55:38.484Z,9.70
2018-07-25T21:58:09.209Z,8.73
2018-07-25T22:00:43.746Z,10.45
2018-07-25T22:03:18.548Z,9.53
2018-07-25T22:05:48.892Z,10.72
2018-07-25T22:08:19.009Z,9.73
2018-07-25T22:10:49.980Z,9.60
2018-07-25T22:13:20.940Z,10.93
2018-07-25T22:15:52.497Z,10.55
2018-07-25T22:18:26.361Z,10.68
2018-07-25T22:20:58.117Z,9.65
2018-07-25T22:23:27.889Z,10.72
2018-07-25T22:25:59.984Z,9.13
2018-07-25T22:28:29.256Z,9.60
2018-07-25T22:31:00.124Z,9.28
2018-07-25T22:33:35.983Z,9.13
2018-07-25T22:36:05.778Z,9.53
2018-07-25T22:38:40.477Z,9.80
2018-07-25T22:41:12.081Z,9.73
2018-07-25T22:43:45.270Z,10.48
2018-07-25T22:46:15.971Z,9.58
2018-07-25T22:48:47.893Z,10.05
2018-07-25T22:51:18.497Z,10.68
2018-07-25T22:53:51.785Z,9.28
2018-07-25T22:56:21.757Z,10.18
2018-07-25T22:58:54.789Z,9.93
2018-07-25T23:01:28.800Z,9.00
2018-07-25T23:04:01.259Z,8.78
2018-07-25T23:06:44.760Z,8.25
2018-07-25T23:09:16.316Z,11.00
2018-07-25T23:11:46.187Z,7.35
2018-07-25T23:14:16.327Z,8.25
2018-07-25T23:16:47.172Z,9.68
2018-07-25T23:21:56.653Z,8.50
2018-07-25T23:24:27.301Z,8.33
2018-07-25T23:26:58.890Z,9.03
2018-07-25T23:29:29.411Z,10.25
2018-07-25T23:31:59.485Z,9.75
2018-07-25T23:34:35.789Z,9.73
2018-07-25T23:37:07.923Z,9.53
2018-07-25T23:39:38.449Z,9.33
2018-07-25T23:42:10.732Z,11.20
2018-07-25T23:44:50.785Z,8.98
2018-07-25T23:50:25.649Z,8.50
2018-07-25T23:53:02.865Z,9.68
2018-07-25T23:55:47.885Z,8.68
2018-07-25T23:58:34.344Z,9.08
